sensor_id;sensor_type;location;lat;lon;timestamp;temperature;humidity
1025;DHT22;501;48.214;11.350;2023-03-01T00:01:23;1.80;41.80
1025;DHT22;501;48.214;11.350;2023-03-01T00:03:49;1.80;41.70
1025;DHT22;501;48.214;11.350;2023-03-01T00:06:15;1.80;41.60
1025;DHT22;501;48.214;11.350;2023-03-01T00:08:41;1.80;41.70
1025;DHT22;501;48.214;11.350;2023-03-01T00:11:15;1.80;41.60
1025;DHT22;501;48.214;11.350;2023-03-01T00:13:43;1.80;41.90
1025;DHT22;501;48.214;11.350;2023-03-01T00:16:15;1.80;41.70
1025;DHT22;501;48.214;11.350;2023-03-01T00:18:41;1.70;41.60
1025;DHT22;501;48.214;11.350;2023-03-01T00:21:07;1.70;41.70
1025;DHT22;501;48.214;11.350;2023-03-01T00:23:36;1.80;41.50
1025;DHT22;501;48.214;11.350;2023-03-01T00:26:02;1.70;41.40
1025;DHT22;501;48.214;11.350;2023-03-01T00:28:28;1.70;41.40
1025;DHT22;501;48.214;11.350;2023-03-01T00:30:53;1.70;41.60
1025;DHT22;501;48.214;11.350;2023-03-01T00:33:19;1.70;41.80
1025;DHT22;501;48.214;11.350;2023-03-01T00:35:44;1.70;41.40
1025;DHT22;501;48.214;11.350;2023-03-01T00:38:10;1.70;41.40
1025;DHT22;501;48.214;11.350;2023-03-01T00:40:36;1.70;41.20
1025;DHT22;501;48.214;11.350;2023-03-01T00:43:03;1.70;41.70
1025;DHT22;501;48.214;11.350;2023-03-01T00:45:29;1.70;41.70
1025;DHT22;501;48.214;11.350;2023-03-01T00:47:56;1.60;41.60
1025;DHT22;501;48.214;11.350;2023-03-01T00:50:23;1.60;41.80
1025;DHT22;501;48.214;11.350;2023-03-01T00:52:52;1.70;41.40
1025;DHT22;501;48.214;11.350;2023-03-01T00:55:18;1.70;41.50
1025;DHT22;501;48.214;11.350;2023-03-01T00:57:44;1.70;41.50
1025;DHT22;501;48.214;11.350;2023-03-01T01:00:10;1.70;41.50
1025;DHT22;501;48.214;11.350;2023-03-01T01:02:37;1.70;41.70
1025;DHT22;501;48.214;11.350;2023-03-01T01:05:03;1.70;41.50
1025;DHT22;501;48.214;11.350;2023-03-01T01:07:29;1.70;41.40
1025;DHT22;501;48.214;11.350;2023-03-01T01:09:54;1.70;41.30
1025;DHT22;501;48.214;11.350;2023-03-01T01:12:20;1.70;41.30
1025;DHT22;501;48.214;11.350;2023-03-01T01:14:46;1.70;41.60
1025;DHT22;501;48.214;11.350;2023-03-01T01:17:11;1.70;41.60
1025;DHT22;501;48.214;11.350;2023-03-01T01:19:37;1.70;41.20
1025;DHT22;501;48.214;11.350;2023-03-01T01:22:03;1.70;41.30
1025;DHT22;501;48.214;11.350;2023-03-01T01:24:29;1.70;41.70
1025;DHT22;501;48.214;11.350;2023-03-01T01:26:55;1.70;41.70
1025;DHT22;501;48.214;11.350;2023-03-01T01:29:21;1.70;41.40
1025;DHT22;501;48.214;11.350;2023-03-01T01:31:47;1.70;41.60
1025;DHT22;501;48.214;11.350;2023-03-01T01:34:18;1.70;41.80
1025;DHT22;501;48.214;11.350;2023-03-01T01:36:48;1.70;41.40
1025;DHT22;501;48.214;11.350;2023-03-01T01:39:15;1.70;41.40
1025;DHT22;501;48.214;11.350;2023-03-01T01:41:42;1.70;41.40
1025;DHT22;501;48.214;11.350;2023-03-01T01:46:48;1.60;41.70
1025;DHT22;501;48.214;11.350;2023-03-01T01:49:39;1.60;41.80
1025;DHT22;501;48.214;11.350;2023-03-01T01:52:22;1.60;41.60
1025;DHT22;501;48.214;11.350;2023-03-01T01:57:23;1.60;41.70
1025;DHT22;501;48.214;11.350;2023-03-01T01:59:53;1.60;41.50
1025;DHT22;501;48.214;11.350;2023-03-01T02:02:20;1.60;41.30
1025;DHT22;501;48.214;11.350;2023-03-01T02:04:47;1.60;41.30
1025;DHT22;501;48.214;11.350;2023-03-01T02:07:16;1.60;41.40
1025;DHT22;501;48.214;11.350;2023-03-01T02:09:48;1.60;41.50
1025;DHT22;501;48.214;11.350;2023-03-01T02:12:17;1.60;41.70
1025;DHT22;501;48.214;11.350;2023-03-01T02:14:43;1.60;41.30
1025;DHT22;501;48.214;11.350;2023-03-01T02:17:14;1.60;41.60
1025;DHT22;501;48.214;11.350;2023-03-01T02:19:48;1.60;41.40
1025;DHT22;501;48.214;11.350;2023-03-01T02:22:24;1.60;41.50
1025;DHT22;501;48.214;11.350;2023-03-01T02:30:27;1.60;41.40
1025;DHT22;501;48.214;11.350;2023-03-01T02:32:54;1.60;41.60
1025;DHT22;501;48.214;11.350;2023-03-01T02:35:32;1.60;41.50
1025;DHT22;501;48.214;11.350;2023-03-01T02:38:00;1.60;41.30
1025;DHT22;501;48.214;11.350;2023-03-01T02:40:29;1.60;41.20
1025;DHT22;501;48.214;11.350;2023-03-01T02:42:57;1.60;41.40
1025;DHT22;501;48.214;11.350;2023-03-01T02:45:25;1.60;41.30
1025;DHT22;501;48.214;11.350;2023-03-01T02:47:54;1.60;41.40
1025;DHT22;501;48.214;11.350;2023-03-01T02:53:37;1.60;40.80
1025;DHT22;501;48.214;11.350;2023-03-01T02:56:04;1.60;40.80
1025;DHT22;501;48.214;11.350;2023-03-01T02:58:30;1.60;41.00
1025;DHT22;501;48.214;11.350;2023-03-01T03:00:56;1.50;41.10
1025;DHT22;501;48.214;11.350;2023-03-01T03:03:22;1.50;40.70
1025;DHT22;501;48.214;11.350;2023-03-01T03:05:48;1.50;40.70
1025;DHT22;501;48.214;11.350;2023-03-01T03:08:14;1.60;41.10
1025;DHT22;501;48.214;11.350;2023-03-01T03:10:49;1.50;41.10
1025;DHT22;501;48.214;11.350;2023-03-01T03:13:15;1.50;40.80
1025;DHT22;501;48.214;11.350;2023-03-01T03:15:41;1.50;40.80
1025;DHT22;501;48.214;11.350;2023-03-01T03:18:13;1.50;40.50
1025;DHT22;501;48.214;11.350;2023-03-01T03:20:40;1.50;40.00
1025;DHT22;501;48.214;11.350;2023-03-01T03:23:06;1.40;40.40
1025;DHT22;501;48.214;11.350;2023-03-01T03:25:32;1.40;40.40
1025;DHT22;501;48.214;11.350;2023-03-01T03:27:58;1.50;40.20
1025;DHT22;501;48.214;11.350;2023-03-01T03:30:26;1.40;39.90
1025;DHT22;501;48.214;11.350;2023-03-01T03:32:52;1.40;39.90
1025;DHT22;501;48.214;11.350;2023-03-01T03:35:26;1.40;40.10
1025;DHT22;501;48.214;11.350;2023-03-01T03:37:53;1.40;40.30
1025;DHT22;501;48.214;11.350;2023-03-01T03:42:58;1.30;41.00
1025;DHT22;501;48.214;11.350;2023-03-01T03:45:23;1.40;40.70
1025;DHT22;501;48.214;11.350;2023-03-01T03:47:49;1.30;40.50
1025;DHT22;501;48.214;11.350;2023-03-01T03:50:16;1.30;40.60
1025;DHT22;501;48.214;11.350;2023-03-01T03:52:43;1.30;40.50
1025;DHT22;501;48.214;11.350;2023-03-01T03:55:10;1.30;40.60
1025;DHT22;501;48.214;11.350;2023-03-01T03:57:40;1.30;40.90
1025;DHT22;501;48.214;11.350;2023-03-01T04:00:08;1.30;41.00
1025;DHT22;501;48.214;11.350;2023-03-01T04:02:43;1.30;40.80
1025;DHT22;501;48.214;11.350;2023-03-01T04:05:10;1.30;41.00
1025;DHT22;501;48.214;11.350;2023-03-01T04:07:37;1.30;40.20
1025;DHT22;501;48.214;11.350;2023-03-01T04:10:04;1.30;40.20
1025;DHT22;501;48.214;11.350;2023-03-01T04:12:32;1.30;40.00
1025;DHT22;501;48.214;11.350;2023-03-01T04:15:00;1.30;40.20
1025;DHT22;501;48.214;11.350;2023-03-01T04:17:25;1.20;39.90
1025;DHT22;501;48.214;11.350;2023-03-01T04:19:51;1.20;40.00
1025;DHT22;501;48.214;11.350;2023-03-01T04:22:17;1.20;40.20
1025;DHT22;501;48.214;11.350;2023-03-01T04:24:44;1.20;40.30
1025;DHT22;501;48.214;11.350;2023-03-01T04:27:11;1.10;40.30
1025;DHT22;501;48.214;11.350;2023-03-01T04:29:36;1.10;40.20
1025;DHT22;501;48.214;11.350;2023-03-01T04:32:02;1.10;40.10
1025;DHT22;501;48.214;11.350;2023-03-01T04:34:29;1.10;40.60
1025;DHT22;501;48.214;11.350;2023-03-01T04:36:55;1.10;41.00
1025;DHT22;501;48.214;11.350;2023-03-01T04:39:21;1.10;40.60
1025;DHT22;501;48.214;11.350;2023-03-01T04:41:47;1.10;40.40
1025;DHT22;501;48.214;11.350;2023-03-01T04:44:12;1.10;40.60
1025;DHT22;501;48.214;11.350;2023-03-01T04:46:38;1.10;39.90
1025;DHT22;501;48.214;11.350;2023-03-01T04:49:04;1.00;40.40
1025;DHT22;501;48.214;11.350;2023-03-01T04:51:31;1.00;40.50
1025;DHT22;501;48.214;11.350;2023-03-01T04:53:58;1.00;40.20
1025;DHT22;501;48.214;11.350;2023-03-01T04:56:24;1.00;40.00
1025;DHT22;501;48.214;11.350;2023-03-01T04:58:49;1.00;39.70
1025;DHT22;501;48.214;11.350;2023-03-01T05:01:19;0.90;39.60
1025;DHT22;501;48.214;11.350;2023-03-01T05:03:47;0.80;39.50
1025;DHT22;501;48.214;11.350;2023-03-01T05:06:13;0.70;39.80
1025;DHT22;501;48.214;11.350;2023-03-01T05:08:40;0.70;40.00
1025;DHT22;501;48.214;11.350;2023-03-01T05:11:07;0.60;39.70
1025;DHT22;501;48.214;11.350;2023-03-01T05:13:34;0.60;40.40
1025;DHT22;501;48.214;11.350;2023-03-01T05:16:01;0.50;40.80
1025;DHT22;501;48.214;11.350;2023-03-01T05:18:29;0.50;40.80
1025;DHT22;501;48.214;11.350;2023-03-01T05:21:02;0.40;40.80
1025;DHT22;501;48.214;11.350;2023-03-01T05:23:30;0.40;41.00
1025;DHT22;501;48.214;11.350;2023-03-01T05:25:58;0.30;40.90
1025;DHT22;501;48.214;11.350;2023-03-01T05:28:25;0.30;41.00
1025;DHT22;501;48.214;11.350;2023-03-01T05:30:51;0.30;41.80
1025;DHT22;501;48.214;11.350;2023-03-01T05:33:17;0.30;41.80
1025;DHT22;501;48.214;11.350;2023-03-01T05:35:45;0.30;41.80
1025;DHT22;501;48.214;11.350;2023-03-01T05:38:11;0.20;41.70
1025;DHT22;501;48.214;11.350;2023-03-01T05:40:42;0.20;41.70
1025;DHT22;501;48.214;11.350;2023-03-01T05:43:09;0.20;41.70
1025;DHT22;501;48.214;11.350;2023-03-01T05:45:37;0.20;42.00
1025;DHT22;501;48.214;11.350;2023-03-01T05:48:03;0.20;42.00
1025;DHT22;501;48.214;11.350;2023-03-01T05:50:33;0.10;42.10
1025;DHT22;501;48.214;11.350;2023-03-01T05:53:04;0.20;42.10
1025;DHT22;501;48.214;11.350;2023-03-01T05:55:33;0.10;42.40
1025;DHT22;501;48.214;11.350;2023-03-01T05:58:04;0.10;42.30
1025;DHT22;501;48.214;11.350;2023-03-01T06:00:30;0.10;42.00
1025;DHT22;501;48.214;11.350;2023-03-01T06:02:57;0.10;42.40
1025;DHT22;501;48.214;11.350;2023-03-01T06:05:24;0.20;42.40
1025;DHT22;501;48.214;11.350;2023-03-01T06:07:50;0.20;41.90
1025;DHT22;501;48.214;11.350;2023-03-01T06:10:17;0.20;42.00
1025;DHT22;501;48.214;11.350;2023-03-01T06:12:43;0.20;41.90
1025;DHT22;501;48.214;11.350;2023-03-01T06:15:11;0.20;41.70
1025;DHT22;501;48.214;11.350;2023-03-01T06:17:39;0.20;42.00
1025;DHT22;501;48.214;11.350;2023-03-01T06:20:14;0.20;42.20
1025;DHT22;501;48.214;11.350;2023-03-01T06:22:41;0.20;41.70
1025;DHT22;501;48.214;11.350;2023-03-01T06:25:08;0.20;42.10
1025;DHT22;501;48.214;11.350;2023-03-01T06:27:34;0.20;42.00
1025;DHT22;501;48.214;11.350;2023-03-01T06:30:00;0.30;42.40
1025;DHT22;501;48.214;11.350;2023-03-01T06:32:26;0.30;41.80
1025;DHT22;501;48.214;11.350;2023-03-01T06:34:51;0.20;41.70
1025;DHT22;501;48.214;11.350;2023-03-01T06:37:17;0.30;41.80
1025;DHT22;501;48.214;11.350;2023-03-01T06:39:42;0.30;41.80
1025;DHT22;501;48.214;11.350;2023-03-01T06:42:09;0.30;42.20
1025;DHT22;501;48.214;11.350;2023-03-01T06:44:35;0.30;42.40
1025;DHT22;501;48.214;11.350;2023-03-01T06:47:02;0.30;42.20
1025;DHT22;501;48.214;11.350;2023-03-01T06:49:27;0.40;41.90
1025;DHT22;501;48.214;11.350;2023-03-01T06:51:53;0.40;41.90
1025;DHT22;501;48.214;11.350;2023-03-01T06:54:18;0.40;41.90
1025;DHT22;501;48.214;11.350;2023-03-01T06:56:48;0.40;41.90
1025;DHT22;501;48.214;11.350;2023-03-01T06:59:15;0.40;41.40
1025;DHT22;501;48.214;11.350;2023-03-01T07:01:40;0.40;41.90
1025;DHT22;501;48.214;11.350;2023-03-01T07:04:06;0.40;41.90
1025;DHT22;501;48.214;11.350;2023-03-01T07:06:32;0.40;41.90
1025;DHT22;501;48.214;11.350;2023-03-01T07:08:58;0.40;41.90
1025;DHT22;501;48.214;11.350;2023-03-01T07:11:24;0.40;41.90
1025;DHT22;501;48.214;11.350;2023-03-01T07:13:49;0.40;41.50
1025;DHT22;501;48.214;11.350;2023-03-01T07:16:15;0.40;41.90
1025;DHT22;501;48.214;11.350;2023-03-01T07:18:42;0.50;41.90
1025;DHT22;501;48.214;11.350;2023-03-01T07:21:09;0.50;41.30
1025;DHT22;501;48.214;11.350;2023-03-01T07:23:36;0.50;41.60
1025;DHT22;501;48.214;11.350;2023-03-01T07:26:02;0.60;41.40
1025;DHT22;501;48.214;11.350;2023-03-01T07:28:28;0.60;40.80
1025;DHT22;501;48.214;11.350;2023-03-01T07:30:54;0.60;41.30
1025;DHT22;501;48.214;11.350;2023-03-01T07:33:20;0.70;40.90
1025;DHT22;501;48.214;11.350;2023-03-01T07:35:46;0.70;40.40
1025;DHT22;501;48.214;11.350;2023-03-01T07:38:11;0.70;40.40
1025;DHT22;501;48.214;11.350;2023-03-01T07:40:37;0.70;39.60
1025;DHT22;501;48.214;11.350;2023-03-01T07:43:03;0.70;39.50
1025;DHT22;501;48.214;11.350;2023-03-01T07:45:29;0.70;39.50
1025;DHT22;501;48.214;11.350;2023-03-01T07:47:55;0.80;39.80
1025;DHT22;501;48.214;11.350;2023-03-01T07:50:22;0.80;39.90
1025;DHT22;501;48.214;11.350;2023-03-01T07:52:49;0.90;39.50
1025;DHT22;501;48.214;11.350;2023-03-01T07:55:15;0.90;39.50
1025;DHT22;501;48.214;11.350;2023-03-01T07:57:41;1.00;39.30
1025;DHT22;501;48.214;11.350;2023-03-01T08:00:09;1.00;39.10
1025;DHT22;501;48.214;11.350;2023-03-01T08:02:35;1.00;38.90
1025;DHT22;501;48.214;11.350;2023-03-01T08:05:01;1.00;38.90
1025;DHT22;501;48.214;11.350;2023-03-01T08:07:26;1.00;38.90
1025;DHT22;501;48.214;11.350;2023-03-01T08:09:52;1.00;39.30
1025;DHT22;501;48.214;11.350;2023-03-01T08:12:18;1.10;38.60
1025;DHT22;501;48.214;11.350;2023-03-01T08:14:43;1.10;38.80
1025;DHT22;501;48.214;11.350;2023-03-01T08:17:09;1.20;38.50
1025;DHT22;501;48.214;11.350;2023-03-01T08:19:35;1.20;38.20
1025;DHT22;501;48.214;11.350;2023-03-01T08:22:03;1.30;38.00
1025;DHT22;501;48.214;11.350;2023-03-01T08:24:29;1.30;37.90
1025;DHT22;501;48.214;11.350;2023-03-01T08:26:55;1.40;37.70
1025;DHT22;501;48.214;11.350;2023-03-01T08:29:21;1.50;37.70
1025;DHT22;501;48.214;11.350;2023-03-01T08:31:47;1.50;37.00
1025;DHT22;501;48.214;11.350;2023-03-01T08:34:16;1.50;36.60
1025;DHT22;501;48.214;11.350;2023-03-01T08:36:45;1.60;36.80
1025;DHT22;501;48.214;11.350;2023-03-01T08:39:12;1.60;36.10
1025;DHT22;501;48.214;11.350;2023-03-01T08:41:38;1.60;36.00
1025;DHT22;501;48.214;11.350;2023-03-01T08:44:05;1.60;36.10
1025;DHT22;501;48.214;11.350;2023-03-01T08:46:33;1.60;36.50
1025;DHT22;501;48.214;11.350;2023-03-01T08:48:59;1.70;36.50
1025;DHT22;501;48.214;11.350;2023-03-01T08:51:26;1.70;36.80
1025;DHT22;501;48.214;11.350;2023-03-01T08:53:52;1.80;36.90
1025;DHT22;501;48.214;11.350;2023-03-01T08:56:18;1.80;36.40
1025;DHT22;501;48.214;11.350;2023-03-01T08:58:45;1.80;36.30
1025;DHT22;501;48.214;11.350;2023-03-01T09:01:13;1.80;36.30
1025;DHT22;501;48.214;11.350;2023-03-01T09:03:40;1.90;36.20
1025;DHT22;501;48.214;11.350;2023-03-01T09:06:07;1.90;35.80
1025;DHT22;501;48.214;11.350;2023-03-01T09:08:37;1.90;35.70
1025;DHT22;501;48.214;11.350;2023-03-01T09:11:04;1.90;36.00
1025;DHT22;501;48.214;11.350;2023-03-01T09:13:30;1.90;35.90
1025;DHT22;501;48.214;11.350;2023-03-01T09:16:00;2.00;36.60
1025;DHT22;501;48.214;11.350;2023-03-01T09:18:26;2.10;36.40
1025;DHT22;501;48.214;11.350;2023-03-01T09:20:52;2.20;35.70
1025;DHT22;501;48.214;11.350;2023-03-01T09:23:20;2.20;35.90
1025;DHT22;501;48.214;11.350;2023-03-01T09:25:46;2.20;36.10
1025;DHT22;501;48.214;11.350;2023-03-01T09:28:12;2.30;35.50
1025;DHT22;501;48.214;11.350;2023-03-01T09:30:37;2.30;35.20
1025;DHT22;501;48.214;11.350;2023-03-01T09:33:03;2.30;34.60
1025;DHT22;501;48.214;11.350;2023-03-01T09:35:29;2.30;35.00
1025;DHT22;501;48.214;11.350;2023-03-01T09:37:55;2.20;35.20
1025;DHT22;501;48.214;11.350;2023-03-01T09:40:22;2.20;35.60
1025;DHT22;501;48.214;11.350;2023-03-01T09:43:05;2.20;35.40
1025;DHT22;501;48.214;11.350;2023-03-01T09:45:35;2.30;36.10
1025;DHT22;501;48.214;11.350;2023-03-01T09:48:03;2.30;34.70
1025;DHT22;501;48.214;11.350;2023-03-01T09:50:34;2.30;35.40
1025;DHT22;501;48.214;11.350;2023-03-01T09:53:31;2.30;35.40
1025;DHT22;501;48.214;11.350;2023-03-01T09:56:30;2.30;34.90
1025;DHT22;501;48.214;11.350;2023-03-01T10:01:46;2.40;35.50
1025;DHT22;501;48.214;11.350;2023-03-01T10:04:47;2.40;35.30
1025;DHT22;501;48.214;11.350;2023-03-01T10:09:53;2.50;35.40
1025;DHT22;501;48.214;11.350;2023-03-01T10:12:26;2.50;35.70
1025;DHT22;501;48.214;11.350;2023-03-01T10:15:43;2.50;35.70
1025;DHT22;501;48.214;11.350;2023-03-01T10:18:06;2.50;35.30
1025;DHT22;501;48.214;11.350;2023-03-01T10:20:52;2.50;34.80
1025;DHT22;501;48.214;11.350;2023-03-01T10:23:18;2.50;35.50
1025;DHT22;501;48.214;11.350;2023-03-01T10:25:47;2.60;35.40
1025;DHT22;501;48.214;11.350;2023-03-01T10:28:25;2.70;35.50
1025;DHT22;501;48.214;11.350;2023-03-01T10:30:54;2.70;35.00
1025;DHT22;501;48.214;11.350;2023-03-01T10:33:23;2.80;35.00
1025;DHT22;501;48.214;11.350;2023-03-01T10:35:51;2.90;35.10
1025;DHT22;501;48.214;11.350;2023-03-01T10:38:18;3.00;34.70
1025;DHT22;501;48.214;11.350;2023-03-01T10:40:57;2.90;34.10
1025;DHT22;501;48.214;11.350;2023-03-01T10:43:32;2.90;34.00
1025;DHT22;501;48.214;11.350;2023-03-01T10:51:33;2.90;34.10
1025;DHT22;501;48.214;11.350;2023-03-01T10:54:09;3.00;35.20
1025;DHT22;501;48.214;11.350;2023-03-01T10:56:48;3.10;34.10
1025;DHT22;501;48.214;11.350;2023-03-01T10:59:34;3.10;33.70
1025;DHT22;501;48.214;11.350;2023-03-01T11:04:34;3.20;34.20
1025;DHT22;501;48.214;11.350;2023-03-01T11:07:02;3.40;34.10
1025;DHT22;501;48.214;11.350;2023-03-01T11:09:32;3.50;33.60
1025;DHT22;501;48.214;11.350;2023-03-01T11:12:05;3.60;33.50
1025;DHT22;501;48.214;11.350;2023-03-01T11:14:39;3.70;33.00
1025;DHT22;501;48.214;11.350;2023-03-01T11:17:28;3.70;32.90
1025;DHT22;501;48.214;11.350;2023-03-01T11:22:30;3.70;33.60
1025;DHT22;501;48.214;11.350;2023-03-01T11:24:57;3.70;33.40
1025;DHT22;501;48.214;11.350;2023-03-01T11:27:31;3.80;33.20
1025;DHT22;501;48.214;11.350;2023-03-01T11:32:28;4.00;33.10
1025;DHT22;501;48.214;11.350;2023-03-01T11:35:03;4.00;32.90
1025;DHT22;501;48.214;11.350;2023-03-01T11:38:16;4.10;32.90
1025;DHT22;501;48.214;11.350;2023-03-01T11:40:52;4.20;32.60
1025;DHT22;501;48.214;11.350;2023-03-01T11:53:59;4.30;32.70
1025;DHT22;501;48.214;11.350;2023-03-01T11:56:38;4.30;33.30
1025;DHT22;501;48.214;11.350;2023-03-01T12:09:38;4.70;31.80
1025;DHT22;501;48.214;11.350;2023-03-01T12:15:45;5.00;32.40
1025;DHT22;501;48.214;11.350;2023-03-01T12:37:54;5.80;31.40
1025;DHT22;501;48.214;11.350;2023-03-01T12:45:50;5.90;30.20
1025;DHT22;501;48.214;11.350;2023-03-01T12:51:24;5.90;30.30
1025;DHT22;501;48.214;11.350;2023-03-01T12:53:53;6.00;30.70
1025;DHT22;501;48.214;11.350;2023-03-01T12:56:23;6.10;30.80
1025;DHT22;501;48.214;11.350;2023-03-01T12:59:11;6.20;31.00
1025;DHT22;501;48.214;11.350;2023-03-01T13:07:21;7.20;30.20
1025;DHT22;501;48.214;11.350;2023-03-01T13:10:10;7.60;29.80
1025;DHT22;501;48.214;11.350;2023-03-01T13:12:53;8.10;29.30
1025;DHT22;501;48.214;11.350;2023-03-01T13:15:31;8.70;27.60
1025;DHT22;501;48.214;11.350;2023-03-01T13:25:35;9.90;26.60
1025;DHT22;501;48.214;11.350;2023-03-01T13:28:51;10.10;24.90
1025;DHT22;501;48.214;11.350;2023-03-01T13:33:46;10.80;24.00
1025;DHT22;501;48.214;11.350;2023-03-01T13:39:28;11.20;23.60
1025;DHT22;501;48.214;11.350;2023-03-01T13:41:57;11.40;23.00
1025;DHT22;501;48.214;11.350;2023-03-01T13:44:25;11.70;22.60
1025;DHT22;501;48.214;11.350;2023-03-01T13:46:54;11.90;22.70
1025;DHT22;501;48.214;11.350;2023-03-01T13:49:23;12.10;21.80
1025;DHT22;501;48.214;11.350;2023-03-01T13:51:51;12.30;21.60
1025;DHT22;501;48.214;11.350;2023-03-01T13:54:30;12.40;21.50
1025;DHT22;501;48.214;11.350;2023-03-01T13:56:59;12.60;22.40
1025;DHT22;501;48.214;11.350;2023-03-01T13:59:26;12.80;22.20
1025;DHT22;501;48.214;11.350;2023-03-01T14:01:54;13.10;21.70
1025;DHT22;501;48.214;11.350;2023-03-01T14:04:27;13.40;21.00
1025;DHT22;501;48.214;11.350;2023-03-01T14:09:44;13.70;20.30
1025;DHT22;501;48.214;11.350;2023-03-01T14:12:19;13.60;20.00
1025;DHT22;501;48.214;11.350;2023-03-01T14:15:20;13.60;19.40
1025;DHT22;501;48.214;11.350;2023-03-01T14:20:32;13.40;20.40
1025;DHT22;501;48.214;11.350;2023-03-01T14:23:09;13.60;19.90
1025;DHT22;501;48.214;11.350;2023-03-01T14:25:36;13.70;19.50
1025;DHT22;501;48.214;11.350;2023-03-01T14:30:44;13.50;19.40
1025;DHT22;501;48.214;11.350;2023-03-01T14:33:36;13.20;19.80
1025;DHT22;501;48.214;11.350;2023-03-01T14:36:10;12.90;19.80
1025;DHT22;501;48.214;11.350;2023-03-01T14:38:37;12.60;20.40
1025;DHT22;501;48.214;11.350;2023-03-01T14:41:10;12.40;20.60
1025;DHT22;501;48.214;11.350;2023-03-01T14:43:38;12.30;20.70
1025;DHT22;501;48.214;11.350;2023-03-01T14:46:16;12.20;20.50
1025;DHT22;501;48.214;11.350;2023-03-01T14:48:41;12.00;21.00
1025;DHT22;501;48.214;11.350;2023-03-01T14:51:07;12.10;21.30
1025;DHT22;501;48.214;11.350;2023-03-01T14:53:33;12.00;21.20
1025;DHT22;501;48.214;11.350;2023-03-01T14:56:01;12.00;21.40
1025;DHT22;501;48.214;11.350;2023-03-01T14:58:32;12.00;21.40
1025;DHT22;501;48.214;11.350;2023-03-01T15:01:01;11.80;21.40
1025;DHT22;501;48.214;11.350;2023-03-01T15:06:00;11.90;21.30
1025;DHT22;501;48.214;11.350;2023-03-01T15:08:27;11.80;21.80
1025;DHT22;501;48.214;11.350;2023-03-01T15:13:40;11.20;22.20
1025;DHT22;501;48.214;11.350;2023-03-01T15:16:29;10.80;22.60
1025;DHT22;501;48.214;11.350;2023-03-01T15:18:58;10.60;23.40
1025;DHT22;501;48.214;11.350;2023-03-01T15:21:33;10.50;23.90
1025;DHT22;501;48.214;11.350;2023-03-01T15:26:59;10.60;24.10
1025;DHT22;501;48.214;11.350;2023-03-01T15:29:33;10.80;23.90
1025;DHT22;501;48.214;11.350;2023-03-01T15:32:25;10.90;23.50
1025;DHT22;501;48.214;11.350;2023-03-01T15:34:51;10.90;23.60
1025;DHT22;501;48.214;11.350;2023-03-01T15:37:37;10.60;24.00
1025;DHT22;501;48.214;11.350;2023-03-01T15:40:22;10.20;23.80
1025;DHT22;501;48.214;11.350;2023-03-01T15:42:57;9.80;25.40
1025;DHT22;501;48.214;11.350;2023-03-01T15:45:25;9.30;26.20
1025;DHT22;501;48.214;11.350;2023-03-01T15:48:01;8.90;26.80
1025;DHT22;501;48.214;11.350;2023-03-01T15:50:36;8.60;27.40
1025;DHT22;501;48.214;11.350;2023-03-01T15:53:10;8.30;27.90
1025;DHT22;501;48.214;11.350;2023-03-01T15:55:37;8.10;28.40
1025;DHT22;501;48.214;11.350;2023-03-01T15:58:10;7.90;29.20
1025;DHT22;501;48.214;11.350;2023-03-01T16:00:37;7.80;29.50
1025;DHT22;501;48.214;11.350;2023-03-01T16:03:04;7.70;29.60
1025;DHT22;501;48.214;11.350;2023-03-01T16:05:32;7.60;30.00
1025;DHT22;501;48.214;11.350;2023-03-01T16:07:59;7.40;30.00
1025;DHT22;501;48.214;11.350;2023-03-01T16:10:26;7.30;29.90
1025;DHT22;501;48.214;11.350;2023-03-01T16:12:53;7.20;30.80
1025;DHT22;501;48.214;11.350;2023-03-01T16:17:50;7.20;31.10
1025;DHT22;501;48.214;11.350;2023-03-01T16:20:16;7.10;31.10
1025;DHT22;501;48.214;11.350;2023-03-01T16:22:43;7.00;31.30
1025;DHT22;501;48.214;11.350;2023-03-01T16:25:10;7.00;32.00
1025;DHT22;501;48.214;11.350;2023-03-01T16:27:36;6.90;32.00
1025;DHT22;501;48.214;11.350;2023-03-01T16:30:02;6.90;32.30
1025;DHT22;501;48.214;11.350;2023-03-01T16:32:27;6.90;32.30
1025;DHT22;501;48.214;11.350;2023-03-01T16:34:53;6.90;32.60
1025;DHT22;501;48.214;11.350;2023-03-01T16:37:19;6.80;32.50
1025;DHT22;501;48.214;11.350;2023-03-01T16:39:44;6.80;32.70
1025;DHT22;501;48.214;11.350;2023-03-01T16:42:10;6.80;32.90
1025;DHT22;501;48.214;11.350;2023-03-01T16:44:35;6.70;33.00
1025;DHT22;501;48.214;11.350;2023-03-01T16:47:01;6.70;32.90
1025;DHT22;501;48.214;11.350;2023-03-01T16:49:27;6.70;33.00
1025;DHT22;501;48.214;11.350;2023-03-01T16:51:55;6.60;33.00
1025;DHT22;501;48.214;11.350;2023-03-01T16:54:21;6.60;33.20
1025;DHT22;501;48.214;11.350;2023-03-01T16:56:46;6.50;33.20
1025;DHT22;501;48.214;11.350;2023-03-01T16:59:12;6.50;34.10
1025;DHT22;501;48.214;11.350;2023-03-01T17:01:38;6.40;33.60
1025;DHT22;501;48.214;11.350;2023-03-01T17:04:08;6.40;33.50
1025;DHT22;501;48.214;11.350;2023-03-01T17:06:35;6.40;33.40
1025;DHT22;501;48.214;11.350;2023-03-01T17:09:01;6.30;33.40
1025;DHT22;501;48.214;11.350;2023-03-01T17:11:27;6.30;33.50
1025;DHT22;501;48.214;11.350;2023-03-01T17:13:52;6.20;33.30
1025;DHT22;501;48.214;11.350;2023-03-01T17:16:19;6.20;32.80
1025;DHT22;501;48.214;11.350;2023-03-01T17:18:45;6.10;33.30
1025;DHT22;501;48.214;11.350;2023-03-01T17:21:12;6.10;33.40
1025;DHT22;501;48.214;11.350;2023-03-01T17:23:39;6.00;33.40
1025;DHT22;501;48.214;11.350;2023-03-01T17:26:06;6.00;33.10
1025;DHT22;501;48.214;11.350;2023-03-01T17:28:34;5.90;33.10
1025;DHT22;501;48.214;11.350;2023-03-01T17:31:01;5.90;33.00
1025;DHT22;501;48.214;11.350;2023-03-01T17:33:27;5.80;33.00
1025;DHT22;501;48.214;11.350;2023-03-01T17:35:55;5.80;34.30
1025;DHT22;501;48.214;11.350;2023-03-01T17:38:21;5.80;35.30
1025;DHT22;501;48.214;11.350;2023-03-01T17:40:47;5.70;35.30
1025;DHT22;501;48.214;11.350;2023-03-01T17:43:14;5.70;35.80
1025;DHT22;501;48.214;11.350;2023-03-01T17:45:40;5.60;36.20
1025;DHT22;501;48.214;11.350;2023-03-01T17:48:09;5.50;36.70
1025;DHT22;501;48.214;11.350;2023-03-01T17:50:37;5.50;37.00
1025;DHT22;501;48.214;11.350;2023-03-01T17:53:04;5.40;37.20
1025;DHT22;501;48.214;11.350;2023-03-01T17:55:35;5.40;37.20
1025;DHT22;501;48.214;11.350;2023-03-01T17:58:01;5.30;37.20
1025;DHT22;501;48.214;11.350;2023-03-01T18:00:28;5.30;37.20
1025;DHT22;501;48.214;11.350;2023-03-01T18:02:53;5.30;37.20
1025;DHT22;501;48.214;11.350;2023-03-01T18:05:19;5.30;37.20
1025;DHT22;501;48.214;11.350;2023-03-01T18:07:45;5.30;37.20
1025;DHT22;501;48.214;11.350;2023-03-01T18:10:11;5.20;37.10
1025;DHT22;501;48.214;11.350;2023-03-01T18:12:37;5.10;37.00
1025;DHT22;501;48.214;11.350;2023-03-01T18:15:04;5.10;37.00
1025;DHT22;501;48.214;11.350;2023-03-01T18:17:30;5.10;37.00
1025;DHT22;501;48.214;11.350;2023-03-01T18:19:55;5.00;36.90
1025;DHT22;501;48.214;11.350;2023-03-01T18:22:21;5.00;36.90
1025;DHT22;501;48.214;11.350;2023-03-01T18:24:47;5.00;36.90
1025;DHT22;501;48.214;11.350;2023-03-01T18:27:13;4.90;36.80
1025;DHT22;501;48.214;11.350;2023-03-01T18:29:39;4.90;37.50
1025;DHT22;501;48.214;11.350;2023-03-01T18:32:05;4.90;36.80
1025;DHT22;501;48.214;11.350;2023-03-01T18:34:31;4.90;36.80